Time;durP1;ratioP1;P1;durP2;ratioP2;P2;SDS_P1;SDS_P2;PMS_P1;PMS_P2;Temp;Humidity;BMP_temperature;BMP_pressure;BME280_temperature;BME280_humidity;BME280_pressure;Samples;Min_cycle;Max_cycle;Signal;HPM_P1;HPM_P2
2022/05/04 00:00:23;;;;;;;6.10;2.63;;;8.30;99.90;;;;;;6223680;22;20027;-89
2022/05/04 00:02:51;;;;;;;3.58;2.47;;;8.40;99.90;;;;;;6224050;22;20022;-89
2022/05/04 00:05:17;;;;;;;5.70;2.08;;;8.30;99.90;;;;;;6223895;22;20048;-90
2022/05/04 00:07:46;;;;;;;2.63;1.93;;;8.30;99.90;;;;;;6248569;22;20012;-91
2022/05/04 00:10:13;;;;;;;2.25;1.70;;;8.30;99.90;;;;;;6249041;22;20344;-90
2022/05/04 00:12:39;;;;;;;;;;;8.30;99.90;;;;;;6223999;22;20019;-90
2022/05/04 00:15:08;;;;;;;3.63;1.85;;;8.30;99.90;;;;;;6223842;22;19915;-90
2022/05/04 00:17:34;;;;;;;4.93;2.35;;;8.30;99.90;;;;;;6223114;22;20015;-90
2022/05/04 00:20:00;;;;;;;5.73;1.83;;;8.30;99.90;;;;;;6248176;22;20047;-90
2022/05/04 00:22:28;;;;;;;1.77;1.50;;;8.30;99.90;;;;;;6225039;22;20024;-87
2022/05/04 00:24:54;;;;;;;3.88;2.15;;;8.90;99.90;;;;;;6232223;22;20016;-88
2022/05/04 00:27:25;;;;;;;3.27;2.27;;;8.40;99.90;;;;;;6229746;22;20095;-86
2022/05/04 00:29:52;;;;;;;2.50;1.52;;;8.30;99.90;;;;;;6261997;22;20459;-86
2022/05/04 00:32:23;;;;;;;2.38;1.65;;;8.20;99.90;;;;;;6235958;22;20081;-87
2022/05/04 00:34:49;;;;;;;10.95;3.40;;;8.20;99.90;;;;;;6228004;22;20429;-90
2022/05/04 00:37:15;;;;;;;8.60;1.60;;;8.20;99.90;;;;;;6248992;22;20016;-90
2022/05/04 00:39:41;;;;;;;2.57;1.70;;;8.30;99.90;;;;;;6223591;22;20016;-89
2022/05/04 00:42:14;;;;;;;2.92;1.88;;;8.20;99.90;;;;;;6223674;22;20390;-90
2022/05/04 00:44:45;;;;;;;2.08;1.70;;;8.60;99.90;;;;;;6222599;22;20020;-90
2022/05/04 00:47:13;;;;;;;6.03;2.38;;;8.20;99.90;;;;;;6248901;22;20023;-90
2022/05/04 00:49:42;;;;;;;3.45;2.55;;;8.30;99.90;;;;;;6248654;22;20043;-90
2022/05/04 00:52:13;;;;;;;1.38;1.27;;;7.90;99.90;;;;;;6248596;22;20016;-90
2022/05/04 00:54:44;;;;;;;4.30;1.90;;;8.20;99.90;;;;;;6248900;22;20340;-90
2022/05/04 00:57:19;;;;;;;5.68;2.30;;;8.10;99.90;;;;;;6224194;22;20447;-89
2022/05/04 00:59:57;;;;;;;2.90;1.40;;;8.50;99.90;;;;;;6248390;22;20085;-89
2022/05/04 01:02:24;;;;;;;5.17;1.80;;;8.20;99.90;;;;;;6200982;22;20363;-89
2022/05/04 01:04:50;;;;;;;2.28;2.08;;;8.30;99.90;;;;;;6250358;22;20344;-89
2022/05/04 01:07:21;;;;;;;2.63;2.23;;;8.20;99.90;;;;;;6225381;22;20020;-90
2022/05/04 01:09:53;;;;;;;2.83;1.83;;;8.20;99.90;;;;;;6226019;22;20082;-90
2022/05/04 01:12:22;;;;;;;5.70;1.73;;;8.30;99.90;;;;;;6225590;22;20027;-89
2022/05/04 01:14:50;;;;;;;2.50;1.70;;;8.20;99.90;;;;;;6200164;22;20020;-88
2022/05/04 01:17:16;;;;;;;2.83;1.55;;;8.20;99.90;;;;;;6226019;22;20024;-89
2022/05/04 01:19:44;;;;;;;2.87;1.93;;;8.20;99.90;;;;;;6225163;22;20022;-90
2022/05/04 01:22:11;;;;;;;4.45;1.75;;;8.20;99.90;;;;;;6225692;22;20077;-89
2022/05/04 01:24:39;;;;;;;1.35;1.23;;;7.10;99.90;;;;;;6250453;22;20012;-90
2022/05/04 01:27:13;;;;;;;2.40;2.17;;;8.10;99.90;;;;;;6250890;22;20018;-90
2022/05/04 01:29:38;;;;;;;6.25;1.73;;;8.20;99.90;;;;;;6250398;22;20494;-89
2022/05/04 01:32:14;;;;;;;4.53;2.70;;;8.60;99.90;;;;;;6250860;22;20090;-89
2022/05/04 01:34:42;;;;;;;5.28;1.73;;;8.10;99.90;;;;;;6250538;22;20023;-89
2022/05/04 01:37:10;;;;;;;2.50;2.00;;;8.00;99.90;;;;;;6224608;22;20022;-89
2022/05/04 01:39:50;;;;;;;5.20;1.80;;;8.00;99.90;;;;;;6250611;22;20022;-90
2022/05/04 01:42:16;;;;;;;1.60;1.50;;;7.90;99.90;;;;;;6199950;22;20021;-89
2022/05/04 01:44:46;;;;;;;3.23;2.17;;;7.20;99.90;;;;;;6224944;22;20055;-89
2022/05/04 01:47:12;;;;;;;5.03;1.83;;;8.00;99.90;;;;;;6199709;22;20020;-89
2022/05/04 01:49:38;;;;;;;3.50;1.80;;;8.10;99.90;;;;;;6250299;22;20018;-89
2022/05/04 01:52:05;;;;;;;1.90;1.73;;;8.00;99.90;;;;;;6250614;22;20100;-89
2022/05/04 01:54:31;;;;;;;1.70;1.50;;;8.00;99.90;;;;;;6250497;22;20522;-89
2022/05/04 01:56:59;;;;;;;3.83;2.03;;;8.10;99.90;;;;;;6225024;22;20019;-89
2022/05/04 01:59:25;;;;;;;2.60;2.40;;;7.80;99.90;;;;;;6224961;22;20019;-89
2022/05/04 02:01:52;;;;;;;2.67;1.87;;;7.90;99.90;;;;;;6224302;22;20011;-89
2022/05/04 02:04:24;;;;;;;3.10;1.48;;;8.10;99.90;;;;;;6250795;22;20069;-88
2022/05/04 02:06:53;;;;;;;2.28;1.83;;;7.30;99.90;;;;;;6225302;22;20348;-89
2022/05/04 02:09:19;;;;;;;1.80;1.67;;;7.90;99.90;;;;;;6224669;22;20015;-89
2022/05/04 02:11:47;;;;;;;4.88;1.73;;;8.10;99.90;;;;;;6224350;22;20099;-89
2022/05/04 02:14:16;;;;;;;4.57;1.80;;;8.30;99.90;;;;;;6250057;22;20054;-89
2022/05/04 02:16:45;;;;;;;2.60;1.50;;;7.80;99.90;;;;;;6250359;22;20034;-89
2022/05/04 02:19:10;;;;;;;2.45;2.13;;;7.90;99.90;;;;;;6225614;22;20019;-89
2022/05/04 02:21:38;;;;;;;2.80;2.00;;;7.90;99.90;;;;;;6200050;22;20111;-89
2022/05/04 02:24:08;;;;;;;1.85;1.58;;;7.80;99.90;;;;;;6225040;22;20126;-89
2022/05/04 02:26:36;;;;;;;;;;;8.00;99.90;;;;;;6225498;22;20028;-89
2022/05/04 02:29:02;;;;;;;2.33;1.83;;;7.90;99.90;;;;;;6249375;22;19915;-89
2022/05/04 02:31:28;;;;;;;2.80;1.60;;;7.90;99.90;;;;;;6225156;22;20077;-89
2022/05/04 02:33:53;;;;;;;2.97;1.83;;;8.00;99.90;;;;;;6224066;22;20019;-89
2022/05/04 02:39:03;;;;;;;2.80;2.08;;;7.90;99.90;;;;;;6249811;22;20022;-89
2022/05/04 02:41:32;;;;;;;4.22;1.98;;;7.90;99.90;;;;;;6250043;22;20500;-89
2022/05/04 02:44:03;;;;;;;6.87;2.17;;;7.90;99.90;;;;;;6223611;22;20047;-89
2022/05/04 02:46:30;;;;;;;2.10;1.90;;;8.90;99.90;;;;;;6200987;22;20016;-89
2022/05/04 02:48:57;;;;;;;1.88;1.55;;;7.90;99.90;;;;;;6249943;22;20016;-89
2022/05/04 02:51:22;;;;;;;4.65;1.88;;;7.90;99.90;;;;;;6249678;22;20020;-89
2022/05/04 02:53:48;;;;;;;1.87;1.70;;;7.80;99.90;;;;;;6224592;22;20095;-90
2022/05/04 02:56:15;;;;;;;1.57;1.37;;;7.80;99.90;;;;;;6199830;22;20463;-89
2022/05/04 02:58:42;;;;;;;4.20;1.50;;;7.90;99.90;;;;;;6175215;22;20019;-89
2022/05/04 03:04:02;;;;;;;2.72;1.80;;;7.80;99.90;;;;;;6249556;22;20024;-89
2022/05/04 03:06:29;;;;;;;2.03;1.35;;;8.90;99.90;;;;;;6224706;22;20499;-89
2022/05/04 03:08:57;;;;;;;6.20;1.52;;;7.80;99.90;;;;;;6224634;22;20094;-90
2022/05/04 03:14:07;;;;;;;2.70;1.95;;;7.80;99.90;;;;;;6249672;22;20023;-89
2022/05/04 03:16:36;;;;;;;3.60;1.80;;;7.80;99.90;;;;;;6249534;22;20012;-89
2022/05/04 03:19:03;;;;;;;1.52;1.42;;;7.80;99.90;;;;;;6249518;22;20090;-89
2022/05/04 03:21:34;;;;;;;3.63;1.90;;;7.80;99.90;;;;;;6224581;22;20012;-89
2022/05/04 03:24:06;;;;;;;2.05;1.48;;;7.80;99.90;;;;;;6249300;22;20022;-88
2022/05/04 03:26:35;;;;;;;2.58;1.80;;;7.70;99.90;;;;;;6224336;22;20024;-89
2022/05/04 03:29:02;;;;;;;2.17;1.67;;;7.30;99.90;;;;;;6249344;22;20051;-88
2022/05/04 03:31:28;;;;;;;2.85;1.67;;;7.70;99.90;;;;;;6250027;22;20339;-88
2022/05/04 03:33:55;;;;;;;3.80;2.30;;;7.70;99.90;;;;;;6249444;22;20047;-89
2022/05/04 03:36:21;;;;;;;;;;;7.70;99.90;;;;;;6224343;22;20020;-89
2022/05/04 03:38:50;;;;;;;2.50;1.73;;;7.70;99.90;;;;;;6224154;22;19990;-88
2022/05/04 03:41:16;;;;;;;3.53;2.05;;;7.60;99.90;;;;;;6249143;22;20087;-89
2022/05/04 03:43:48;;;;;;;2.55;2.17;;;7.70;99.90;;;;;;6224344;22;20016;-88
2022/05/04 03:46:24;;;;;;;3.42;1.85;;;6.60;99.90;;;;;;6199358;22;20015;-89
2022/05/04 03:48:58;;;;;;;1.95;1.60;;;6.80;99.90;;;;;;6223206;22;20049;-88
2022/05/04 03:51:26;;;;;;;2.72;2.42;;;6.90;99.90;;;;;;6224355;22;20012;-89
2022/05/04 03:53:53;;;;;;;3.17;1.83;;;7.70;99.90;;;;;;6224295;22;20016;-89
2022/05/04 03:56:19;;;;;;;;;;;7.60;99.90;;;;;;6224314;22;20019;-89
2022/05/04 03:58:52;;;;;;;2.65;2.38;;;7.70;99.90;;;;;;6223132;22;19921;-89
2022/05/04 04:01:18;;;;;;;3.30;1.80;;;7.50;99.90;;;;;;6223989;22;20027;-89
2022/05/04 04:03:47;;;;;;;2.43;1.80;;;7.60;99.90;;;;;;6249389;22;20012;-89
2022/05/04 04:06:18;;;;;;;2.20;1.70;;;7.60;99.90;;;;;;6249215;22;20022;-89
2022/05/04 04:08:47;;;;;;;1.65;1.55;;;7.60;99.90;;;;;;6249219;22;20456;-89
2022/05/04 04:11:13;;;;;;;2.28;1.77;;;7.60;99.90;;;;;;6249043;22;20019;-89
2022/05/04 04:13:44;;;;;;;1.80;1.70;;;7.70;99.90;;;;;;6223722;22;20016;-89
2022/05/04 04:16:12;;;;;;;2.75;1.75;;;7.70;99.90;;;;;;6223739;22;20321;-89
2022/05/04 04:18:38;;;;;;;2.63;1.70;;;7.80;99.90;;;;;;6275998;22;20020;-88
2022/05/04 04:23:48;;;;;;;2.00;1.77;;;7.70;99.90;;;;;;6227784;22;20019;-89
2022/05/04 04:26:16;;;;;;;5.68;2.33;;;7.70;99.90;;;;;;6249140;22;20086;-89
2022/05/04 04:28:42;;;;;;;2.80;1.98;;;7.60;99.90;;;;;;6248998;22;20046;-89
2022/05/04 04:31:13;;;;;;;3.05;2.00;;;7.60;99.90;;;;;;6248526;22;20091;-89
2022/05/04 04:33:42;;;;;;;2.05;1.80;;;7.60;99.90;;;;;;6223419;22;20016;-89
2022/05/04 04:36:10;;;;;;;3.40;2.60;;;7.60;99.90;;;;;;6248924;22;20055;-88
2022/05/04 04:38:36;;;;;;;3.17;1.95;;;7.80;99.90;;;;;;6224275;22;20024;-89
2022/05/04 04:41:02;;;;;;;6.30;1.87;;;7.60;99.90;;;;;;6248106;22;20054;-90
2022/05/04 04:43:30;;;;;;;3.00;2.23;;;7.90;99.90;;;;;;6249691;22;20090;-89
2022/05/04 04:45:55;;;;;;;2.00;1.77;;;7.60;99.90;;;;;;6223564;22;20019;-88
2022/05/04 04:48:23;;;;;;;4.70;2.20;;;8.80;99.90;;;;;;6223038;22;20020;-89
2022/05/04 04:50:51;;;;;;;2.42;2.20;;;7.50;99.90;;;;;;6223784;22;20016;-89
2022/05/04 04:53:17;;;;;;;7.90;1.70;;;9.00;99.90;;;;;;6249291;22;20047;-89
2022/05/04 04:55:44;;;;;;;3.43;2.03;;;7.60;99.90;;;;;;6249013;22;20016;-89
2022/05/04 04:58:16;;;;;;;4.43;2.58;;;7.60;99.90;;;;;;6248072;22;20023;-89
2022/05/04 05:00:45;;;;;;;2.03;1.77;;;7.60;99.90;;;;;;6248662;22;20020;-88
2022/05/04 05:03:11;;;;;;;1.75;1.52;;;7.60;99.90;;;;;;6223080;22;20019;-88
2022/05/04 05:05:41;;;;;;;4.70;2.23;;;7.70;99.90;;;;;;6223425;22;20099;-88
2022/05/04 05:08:10;;;;;;;6.60;1.98;;;7.00;99.90;;;;;;6248358;22;20043;-89
2022/05/04 05:10:42;;;;;;;2.13;1.83;;;7.70;99.90;;;;;;6248697;22;20019;-89
2022/05/04 05:13:08;;;;;;;2.08;1.65;;;7.80;99.90;;;;;;6223811;22;20019;-89
2022/05/04 05:18:22;;;;;;;1.63;1.52;;;7.80;99.90;;;;;;6248369;22;20347;-90
2022/05/04 05:20:50;;;;;;;10.23;2.20;;;7.40;99.90;;;;;;6223778;22;20022;-88
2022/05/04 05:23:16;;;;;;;2.60;1.63;;;7.80;99.90;;;;;;6223791;22;20020;-89
2022/05/04 05:25:45;;;;;;;2.60;1.42;;;7.70;99.90;;;;;;6248529;22;20391;-89
2022/05/04 05:28:11;;;;;;;1.70;1.25;;;7.90;99.90;;;;;;6223124;22;20022;-89
2022/05/04 05:30:41;;;;;;;2.90;1.60;;;8.70;99.90;;;;;;6222768;22;20091;-89
2022/05/04 05:33:10;;;;;;;2.80;1.27;;;7.80;99.90;;;;;;6200174;22;20509;-86
2022/05/04 05:35:38;;;;;;;1.88;1.05;;;7.90;99.90;;;;;;6248432;22;20042;-84
2022/05/04 05:38:07;;;;;;;3.63;1.60;;;7.90;99.90;;;;;;6248861;22;20062;-84
2022/05/04 05:40:32;;;;;;;2.00;1.52;;;8.00;99.90;;;;;;6222627;22;20019;-84
2022/05/04 05:42:58;;;;;;;4.23;1.70;;;8.10;99.90;;;;;;6248789;22;20011;-84
2022/05/04 05:45:27;;;;;;;2.77;1.50;;;8.10;99.90;;;;;;6223073;22;20015;-84
2022/05/04 05:47:55;;;;;;;1.60;1.50;;;8.00;99.90;;;;;;6225443;22;20321;-84
2022/05/04 05:50:21;;;;;;;1.77;1.67;;;8.10;99.90;;;;;;6250275;22;20358;-83
2022/05/04 05:52:48;;;;;;;5.40;1.57;;;7.10;99.90;;;;;;6225123;22;20023;-83
2022/05/04 05:55:14;;;;;;;3.88;1.65;;;8.10;99.90;;;;;;6250065;22;20073;-84
2022/05/04 05:57:43;;;;;;;1.40;1.30;;;8.20;99.90;;;;;;6250328;22;20023;-84
2022/05/04 06:00:09;;;;;;;1.70;1.27;;;8.20;99.90;;;;;;6249139;22;20408;-85
2022/05/04 06:02:35;;;;;;;7.97;2.88;;;8.30;99.90;;;;;;6249705;22;20019;-84
2022/05/04 06:05:04;;;;;;;3.57;1.80;;;8.40;99.90;;;;;;6250832;22;20024;-84
2022/05/04 06:07:29;;;;;;;2.05;1.60;;;8.30;99.90;;;;;;6249784;22;20102;-83
2022/05/04 06:09:55;;;;;;;3.23;1.67;;;8.40;99.90;;;;;;6225510;22;20479;-84
2022/05/04 06:12:21;;;;;;;1.10;1.00;;;8.50;99.90;;;;;;6250152;22;20027;-84
2022/05/04 06:14:47;;;;;;;1.67;1.57;;;8.50;99.90;;;;;;6225032;22;20020;-86
2022/05/04 06:17:20;;;;;;;3.50;1.57;;;8.60;99.90;;;;;;6224418;22;20319;-88
2022/05/04 06:19:47;;;;;;;2.20;1.25;;;8.60;99.90;;;;;;6224940;22;20102;-87
2022/05/04 06:22:13;;;;;;;7.53;1.63;;;8.70;99.90;;;;;;6250070;22;20043;-85
2022/05/04 06:24:39;;;;;;;3.10;1.75;;;8.70;99.90;;;;;;6200232;22;20026;-88
2022/05/04 06:27:07;;;;;;;5.13;1.97;;;8.80;99.90;;;;;;6250247;22;20343;-87
2022/05/04 06:35:03;;;;;;;1.92;1.27;;;8.90;99.90;;;;;;6250265;22;20106;-83
2022/05/04 06:37:32;;;;;;;1.77;1.52;;;9.00;99.90;;;;;;6250361;22;20063;-87
2022/05/04 06:40:00;;;;;;;3.30;1.70;;;9.00;99.90;;;;;;6249747;22;20054;-86
2022/05/04 06:42:29;;;;;;;7.25;1.83;;;9.20;99.90;;;;;;6249467;22;20150;-86
2022/05/04 06:44:57;;;;;;;2.25;2.08;;;9.10;99.90;;;;;;6250164;22;20096;-87
2022/05/04 06:47:26;;;;;;;2.20;1.60;;;9.10;99.90;;;;;;6225229;22;20019;-86
2022/05/04 06:49:52;;;;;;;6.97;2.33;;;9.20;99.90;;;;;;6250486;22;20054;-85
2022/05/04 06:52:17;;;;;;;1.93;1.30;;;9.20;99.90;;;;;;6224364;22;20055;-95
2022/05/04 06:54:43;;;;;;;6.47;1.73;;;9.30;99.90;;;;;;6200021;22;20020;-87
2022/05/04 06:57:09;;;;;;;4.17;1.43;;;9.30;99.90;;;;;;6224545;22;20160;-86
2022/05/04 06:59:35;;;;;;;2.13;1.40;;;9.30;99.90;;;;;;6224356;22;20374;-85
2022/05/04 07:02:02;;;;;;;1.90;1.60;;;9.40;99.90;;;;;;6224691;22;20451;-84
2022/05/04 07:04:27;;;;;;;4.97;1.90;;;9.40;99.90;;;;;;6249299;22;20015;-86
2022/05/04 07:06:53;;;;;;;2.17;1.23;;;9.60;99.90;;;;;;6224709;22;20019;-85
2022/05/04 07:09:26;;;;;;;1.73;1.63;;;8.60;99.90;;;;;;6250087;22;20015;-86
2022/05/04 07:11:53;;;;;;;4.13;1.45;;;9.30;99.90;;;;;;6226385;22;20019;-86
2022/05/04 07:14:19;;;;;;;2.90;2.03;;;9.60;99.90;;;;;;6224772;22;20058;-86
2022/05/04 07:16:45;;;;;;;3.75;1.70;;;9.70;99.90;;;;;;6223932;22;20055;-86
2022/05/04 07:19:11;;;;;;;3.33;1.97;;;9.80;99.90;;;;;;6224524;22;20030;-87
2022/05/04 07:21:36;;;;;;;1.57;1.47;;;9.90;99.90;;;;;;6223780;22;20179;-85
2022/05/04 07:24:05;;;;;;;3.07;1.60;;;10.00;99.90;;;;;;6224292;22;20338;-87
2022/05/04 07:26:31;;;;;;;1.73;1.60;;;10.00;99.90;;;;;;6199484;22;20022;-94
2022/05/04 07:29:00;;;;;;;3.20;1.40;;;10.00;99.90;;;;;;6224862;22;20016;-88
2022/05/04 07:31:28;;;;;;;5.05;1.77;;;10.10;99.90;;;;;;6224937;22;20015;-90
2022/05/04 07:33:59;;;;;;;2.77;1.63;;;10.10;99.90;;;;;;6249403;22;20019;-86
2022/05/04 07:42:21;;;;;;;1.77;1.65;;;9.70;99.90;;;;;;6228801;22;20024;-86
2022/05/04 07:44:50;;;;;;;5.28;1.42;;;10.50;99.90;;;;;;6253690;22;20286;-85
2022/05/04 07:47:16;;;;;;;2.15;1.60;;;10.50;99.90;;;;;;6252845;22;20091;-83
2022/05/04 07:49:45;;;;;;;5.93;2.80;;;10.60;99.90;;;;;;6276498;22;20051;-82
2022/05/04 07:52:13;;;;;;;4.28;2.30;;;10.50;99.90;;;;;;6275565;22;20020;-87
2022/05/04 07:54:39;;;;;;;2.15;1.58;;;10.50;99.90;;;;;;6275714;22;20529;-85
2022/05/04 07:57:05;;;;;;;4.23;2.00;;;10.40;99.90;;;;;;6249136;22;20011;-85
2022/05/04 07:59:35;;;;;;;5.10;1.70;;;10.30;99.90;;;;;;6222971;22;20020;-85
2022/05/04 08:04:47;;;;;;;5.00;1.35;;;10.90;99.90;;;;;;6248505;22;20474;-84
2022/05/04 08:07:13;;;;;;;3.08;1.63;;;11.60;99.90;;;;;;6275160;22;20015;-83
2022/05/04 08:09:46;;;;;;;4.40;2.35;;;12.30;99.90;;;;;;6222557;22;20024;-84
2022/05/04 08:12:19;;;;;;;2.78;1.38;;;12.90;99.90;;;;;;6248413;22;20447;-88
2022/05/04 08:14:47;;;;;;;3.40;2.13;;;13.10;99.90;;;;;;6248674;22;20064;-87
2022/05/04 08:17:20;;;;;;;2.55;1.50;;;13.70;99.90;;;;;;6224189;22;20020;-88
2022/05/04 08:20:06;;;;;;;2.45;1.48;;;14.10;99.90;;;;;;6225668;22;20094;-87
2022/05/04 08:22:35;;;;;;;1.33;1.23;;;14.60;99.70;;;;;;6200858;22;20130;-88
2022/05/04 08:25:04;;;;;;;3.35;1.35;;;14.70;98.20;;;;;;6225069;22;20026;-87
2022/05/04 08:27:32;;;;;;;2.03;1.83;;;15.00;97.40;;;;;;6249073;22;20016;-91
2022/05/04 08:30:03;;;;;;;4.38;1.52;;;14.80;96.00;;;;;;6249313;22;20023;-87
2022/05/04 08:32:32;;;;;;;3.55;1.70;;;14.50;94.60;;;;;;6224499;22;20015;-88
2022/05/04 08:35:13;;;;;;;4.80;2.17;;;14.10;94.50;;;;;;6197640;22;20023;-89
2022/05/04 08:37:46;;;;;;;3.22;1.60;;;13.70;92.20;;;;;;6222184;22;20070;-88
2022/05/04 08:40:22;;;;;;;2.30;1.42;;;13.30;92.90;;;;;;6248189;22;20514;-91
2022/05/04 08:42:48;;;;;;;2.42;1.80;;;13.00;93.30;;;;;;6222723;22;20019;-87
2022/05/04 08:45:19;;;;;;;4.70;1.63;;;13.00;93.40;;;;;;6200223;22;20466;-87
2022/05/04 08:47:48;;;;;;;2.22;2.03;;;13.20;93.60;;;;;;6223623;22;20098;-88
2022/05/04 08:50:25;;;;;;;2.30;1.70;;;13.50;92.90;;;;;;6249174;22;20012;-87
2022/05/04 08:52:57;;;;;;;5.85;2.03;;;13.90;92.50;;;;;;6249833;22;20035;-87
2022/05/04 08:55:26;;;;;;;2.95;1.95;;;14.10;92.60;;;;;;6249482;22;20027;-87
2022/05/04 08:57:55;;;;;;;6.10;1.90;;;14.20;91.90;;;;;;6223813;22;20023;-88
2022/05/04 09:00:34;;;;;;;8.63;2.05;;;13.60;90.90;;;;;;6224192;22;20030;-88
2022/05/04 09:03:00;;;;;;;4.78;1.88;;;15.00;91.00;;;;;;6225372;22;20019;-88
2022/05/04 09:05:29;;;;;;;2.45;1.65;;;15.10;90.40;;;;;;6225973;22;20466;-87
2022/05/04 09:07:57;;;;;;;4.72;1.55;;;15.20;87.60;;;;;;6248592;22;20088;-89
2022/05/04 09:10:31;;;;;;;5.15;1.60;;;15.40;89.10;;;;;;6224397;22;20452;-88
2022/05/04 09:13:00;;;;;;;4.47;1.70;;;15.50;87.40;;;;;;6223193;22;20457;-88
2022/05/04 09:15:33;;;;;;;3.58;1.45;;;15.60;87.00;;;;;;6248515;22;20011;-88
2022/05/04 09:18:17;;;;;;;1.88;1.48;;;16.10;83.00;;;;;;6223647;22;20011;-86
2022/05/04 09:20:58;;;;;;;2.30;1.92;;;15.80;80.20;;;;;;6224615;22;20436;-87
2022/05/04 09:23:28;;;;;;;6.78;1.73;;;16.30;78.60;;;;;;6225938;22;20019;-86
2022/05/04 09:26:08;;;;;;;3.42;2.13;;;16.40;80.50;;;;;;6251078;22;20049;-86
2022/05/04 09:28:34;;;;;;;2.22;1.35;;;16.30;76.70;;;;;;6225834;22;20455;-86
2022/05/04 09:31:15;;;;;;;1.77;1.67;;;16.20;78.60;;;;;;6250602;22;20019;-86
2022/05/04 09:33:40;;;;;;;3.78;1.55;;;16.50;78.30;;;;;;6250941;22;20329;-87
2022/05/04 09:36:14;;;;;;;2.83;1.85;;;16.40;78.90;;;;;;6225433;22;20044;-86
2022/05/04 09:46:55;;;;;;;2.97;1.50;;;14.60;78.90;;;;;;6229226;22;20062;-86
2022/05/04 09:49:33;;;;;;;1.85;1.30;;;14.60;80.30;;;;;;6225519;22;20020;-86
2022/05/04 09:52:03;;;;;;;4.55;1.45;;;14.80;80.00;;;;;;6225268;22;20020;-87
2022/05/04 09:54:29;;;;;;;3.83;1.75;;;15.10;80.20;;;;;;6250833;22;20016;-86
2022/05/04 09:57:01;;;;;;;3.60;1.98;;;15.20;80.30;;;;;;6200248;22;20015;-86
2022/05/04 09:59:30;;;;;;;1.65;1.52;;;15.40;79.50;;;;;;6250277;22;20019;-88
2022/05/04 10:01:58;;;;;;;8.93;3.50;;;15.30;78.90;;;;;;6224669;22;20015;-86
2022/05/04 10:04:25;;;;;;;3.17;1.30;;;15.30;79.30;;;;;;6250080;22;20375;-82
2022/05/04 10:06:52;;;;;;;3.40;2.08;;;15.30;78.80;;;;;;6249857;22;20094;-84
2022/05/04 10:09:19;;;;;;;7.45;2.03;;;15.50;78.30;;;;;;6277080;22;20020;-82
2022/05/04 10:11:46;;;;;;;3.67;1.90;;;15.70;78.00;;;;;;6276659;22;20023;-86
2022/05/04 10:14:15;;;;;;;4.70;1.98;;;15.80;77.00;;;;;;6249665;22;20023;-86
2022/05/04 10:16:59;;;;;;;6.60;2.45;;;15.90;77.40;;;;;;6224802;22;20019;-84
2022/05/04 10:19:36;;;;;;;2.60;1.42;;;16.10;73.50;;;;;;6224243;22;20016;-85
2022/05/04 10:22:11;;;;;;;4.63;1.98;;;16.30;75.90;;;;;;6223583;22;20383;-86
2022/05/04 10:24:39;;;;;;;6.88;1.70;;;16.50;75.30;;;;;;6223954;22;20343;-87
2022/05/04 10:27:20;;;;;;;3.42;1.60;;;16.60;75.10;;;;;;6223904;22;20096;-86
2022/05/04 10:32:47;;;;;;;2.85;2.05;;;17.00;75.20;;;;;;6250188;22;20055;-89
2022/05/04 10:35:31;;;;;;;2.83;1.67;;;17.20;73.10;;;;;;6224330;22;20523;-90
2022/05/04 10:37:59;;;;;;;3.13;1.48;;;17.00;72.90;;;;;;6224897;22;20016;-87
2022/05/04 10:40:26;;;;;;;3.65;2.25;;;16.90;72.80;;;;;;6224147;22;20329;-92
2022/05/04 10:43:02;;;;;;;1.85;1.63;;;17.00;72.00;;;;;;6199785;22;20530;-87
2022/05/04 10:45:42;;;;;;;3.63;1.90;;;17.00;71.20;;;;;;6224397;22;20026;-86
2022/05/04 10:48:30;;;;;;;;;;;;;;;;;;;;;
2022/05/04 10:51:36;;;;;;;3.97;1.75;;;16.50;70.00;;;;;;6249930;22;20016;-89
2022/05/04 10:54:18;;;;;;;3.35;1.98;;;17.20;69.20;;;;;;6104449;23;20454;-88
2022/05/04 10:56:52;;;;;;;2.35;1.38;;;17.50;69.40;;;;;;6220139;22;20448;-88
2022/05/04 10:59:34;;;;;;;2.38;1.60;;;17.70;70.10;;;;;;6224515;22;20073;-88
2022/05/04 11:02:11;;;;;;;3.55;2.03;;;17.50;67.20;;;;;;6249922;22;20459;-88
2022/05/04 11:04:48;;;;;;;5.50;2.42;;;17.70;68.90;;;;;;6225109;22;20050;-87
2022/05/04 11:07:16;;;;;;;2.15;1.50;;;17.80;68.40;;;;;;6252633;22;20051;-88
2022/05/04 11:10:12;;;;;;;2.85;1.67;;;18.10;68.10;;;;;;6249767;22;20085;-88
2022/05/04 11:12:54;;;;;;;3.50;2.17;;;17.90;67.20;;;;;;6224577;22;20020;-89
2022/05/04 11:15:20;;;;;;;3.15;1.60;;;17.80;67.30;;;;;;6226980;22;20031;-86
2022/05/04 11:17:58;;;;;;;1.45;1.35;;;18.00;67.90;;;;;;6252534;22;20014;-87
2022/05/04 11:20:24;;;;;;;3.28;2.60;;;17.90;65.30;;;;;;6254778;22;20074;-87
2022/05/04 11:22:52;;;;;;;3.83;1.52;;;17.90;66.20;;;;;;6254559;22;20016;-84
2022/05/04 11:25:18;;;;;;;5.63;1.67;;;18.00;66.50;;;;;;6249641;22;20019;-88
2022/05/04 11:27:54;;;;;;;4.75;1.90;;;18.00;65.90;;;;;;6223935;22;20344;-88
2022/05/04 11:30:20;;;;;;;1.50;1.30;;;18.00;63.80;;;;;;6224966;22;20071;-88
2022/05/04 11:32:53;;;;;;;2.92;1.55;;;18.10;65.40;;;;;;6199556;22;20075;-86
2022/05/04 11:35:28;;;;;;;1.25;1.15;;;18.10;64.90;;;;;;6276244;22;20012;-93
2022/05/04 11:38:04;;;;;;;1.70;1.60;;;18.40;65.20;;;;;;6228453;22;20020;-87
2022/05/04 11:40:29;;;;;;;4.17;1.87;;;18.50;65.80;;;;;;6207926;22;20388;-84
2022/05/04 11:42:55;;;;;;;1.80;1.60;;;18.70;65.80;;;;;;6226139;22;20100;-87
2022/05/04 11:45:21;;;;;;;2.13;1.60;;;18.50;65.20;;;;;;6223867;22;20095;-87
2022/05/04 11:47:49;;;;;;;2.53;1.60;;;18.50;65.70;;;;;;6223422;22;20043;-88
2022/05/04 11:50:21;;;;;;;2.92;1.52;;;17.60;64.60;;;;;;6248570;22;20027;-89
2022/05/04 11:52:53;;;;;;;3.90;1.65;;;18.00;63.20;;;;;;6223465;22;20016;-89
2022/05/04 11:55:36;;;;;;;3.85;3.03;;;18.10;64.20;;;;;;6199172;22;20385;-90
2022/05/04 11:58:10;;;;;;;3.13;1.50;;;18.10;63.00;;;;;;6223696;22;20016;-90
2022/05/04 12:00:42;;;;;;;4.43;1.63;;;18.20;63.80;;;;;;6223282;22;20039;-90
2022/05/04 12:03:09;;;;;;;2.53;2.33;;;18.20;64.30;;;;;;6223690;22;20019;-89
2022/05/04 12:05:41;;;;;;;3.35;1.75;;;18.40;64.50;;;;;;6223984;22;20042;-89
2022/05/04 12:08:10;;;;;;;3.33;2.00;;;18.30;63.40;;;;;;6198326;22;20019;-90
2022/05/04 12:10:36;;;;;;;2.78;2.15;;;18.10;63.80;;;;;;6223509;22;20026;-89
2022/05/04 12:13:06;;;;;;;2.47;1.88;;;18.60;64.00;;;;;;6248354;22;20054;-89
2022/05/04 12:15:32;;;;;;;3.00;1.25;;;18.40;63.50;;;;;;6222553;22;20603;-90
2022/05/04 12:18:09;;;;;;;;;;;18.70;63.30;;;;;;6249374;22;20016;-92
2022/05/04 12:20:38;;;;;;;4.17;2.17;;;18.70;63.50;;;;;;6224756;22;19919;-92
2022/05/04 12:23:07;;;;;;;4.60;2.42;;;18.90;63.40;;;;;;6222405;22;20016;-90
2022/05/04 12:25:33;;;;;;;2.33;1.95;;;18.50;63.10;;;;;;6223395;22;20022;-86
2022/05/04 12:28:07;;;;;;;2.15;1.48;;;18.90;63.00;;;;;;6223092;22;20090;-87
2022/05/04 12:33:35;;;;;;;1.95;1.55;;;19.20;61.50;;;;;;6247734;22;20054;-89
2022/05/04 12:36:05;;;;;;;4.43;1.77;;;19.20;61.20;;;;;;6223166;22;20020;-92
2022/05/04 12:38:36;;;;;;;4.25;1.60;;;19.10;61.10;;;;;;6223718;22;20019;-86
2022/05/04 12:41:03;;;;;;;3.00;1.63;;;19.00;61.50;;;;;;6247627;22;20019;-91
2022/05/04 12:43:37;;;;;;;4.70;2.22;;;18.80;62.00;;;;;;6248318;22;20015;-84
2022/05/04 12:46:16;;;;;;;2.00;1.70;;;18.60;61.50;;;;;;6248043;22;20015;-91
2022/05/04 12:48:44;;;;;;;1.50;1.38;;;18.60;62.50;;;;;;6222826;22;20400;-84
2022/05/04 12:51:11;;;;;;;4.88;1.73;;;18.50;62.60;;;;;;6222725;22;20023;-85
2022/05/04 12:53:42;;;;;;;2.30;1.35;;;18.60;63.00;;;;;;6248316;22;20019;-85
2022/05/04 12:58:56;;;;;;;8.57;2.60;;;19.00;61.90;;;;;;6226770;22;20023;-84
2022/05/04 13:01:24;;;;;;;3.72;1.77;;;19.20;60.40;;;;;;6197482;22;20012;-84
2022/05/04 13:03:50;;;;;;;1.75;1.50;;;19.10;60.50;;;;;;6223066;22;20019;-84
2022/05/04 13:06:17;;;;;;;2.92;1.73;;;19.10;60.30;;;;;;6247936;22;20030;-87
2022/05/04 13:08:43;;;;;;;2.72;1.67;;;18.90;60.40;;;;;;6248502;22;20460;-85
2022/05/04 13:11:09;;;;;;;7.40;2.47;;;19.10;60.40;;;;;;6197739;22;20091;-83
2022/05/04 13:13:35;;;;;;;2.05;1.45;;;19.10;60.40;;;;;;6275947;22;20066;-82
2022/05/04 13:16:00;;;;;;;2.17;1.60;;;19.10;60.70;;;;;;6198164;22;20086;-87
2022/05/04 13:18:26;;;;;;;3.63;1.45;;;19.20;60.40;;;;;;6197730;22;20015;-84
2022/05/04 13:20:52;;;;;;;2.17;1.65;;;19.10;59.90;;;;;;6197957;22;20063;-83
2022/05/04 13:23:17;;;;;;;9.07;2.42;;;19.00;60.40;;;;;;6197645;22;20099;-83
2022/05/04 13:25:43;;;;;;;5.18;2.00;;;18.90;60.60;;;;;;6223141;22;20020;-84
2022/05/04 13:28:09;;;;;;;3.63;1.77;;;19.10;60.10;;;;;;6247968;22;20019;-91
2022/05/04 13:30:37;;;;;;;2.30;1.30;;;19.10;59.70;;;;;;6248308;22;20016;-83
2022/05/04 13:33:03;;;;;;;3.03;2.10;;;19.20;59.50;;;;;;6222743;22;20030;-83
2022/05/04 13:35:32;;;;;;;3.15;2.05;;;19.20;59.30;;;;;;6247916;22;20043;-83
2022/05/04 13:37:58;;;;;;;2.17;1.80;;;19.00;59.00;;;;;;6223280;22;20015;-83
2022/05/04 13:40:25;;;;;;;2.40;1.50;;;19.00;59.70;;;;;;6223004;22;20024;-82
2022/05/04 13:42:52;;;;;;;1.90;1.55;;;18.90;59.20;;;;;;6248182;22;20023;-86
2022/05/04 13:45:17;;;;;;;1.90;1.40;;;18.80;59.30;;;;;;6222872;22;20525;-83
2022/05/04 13:47:43;;;;;;;3.45;1.77;;;18.80;59.70;;;;;;6222916;22;20016;-84
2022/05/04 13:55:42;;;;;;;2.63;1.60;;;19.30;59.10;;;;;;6227003;22;20062;-85